createdAt,value
2019-02-11T00:01:36.307Z,97591.48
2019-02-11T00:04:06.915Z,97510.39
2019-02-11T00:06:36.851Z,97605.09
2019-02-11T00:09:10.133Z,97608.42
2019-02-11T00:11:40.342Z,97617.83
2019-02-11T00:14:10.515Z,97636.84
2019-02-11T00:16:40.656Z,97636.64
2019-02-11T00:19:12.595Z,97653.27
2019-02-11T00:21:42.765Z,97651.68
2019-02-11T00:24:13.897Z,97647.01
2019-02-11T00:26:44.242Z,97668.09
2019-02-11T00:29:15.737Z,97693.22
2019-02-11T00:31:45.819Z,97696.27
2019-02-11T00:34:16.871Z,97723.85
2019-02-11T00:36:47.165Z,97719.86
2019-02-11T00:39:17.369Z,97745.31
2019-02-11T00:41:47.330Z,97743.25
2019-02-11T00:44:17.464Z,97744.49
2019-02-11T00:46:47.744Z,97750.82
2019-02-11T00:49:18.050Z,97776.45
2019-02-11T00:51:48.643Z,97778.60
2019-02-11T00:54:18.899Z,97797.25
2019-02-11T00:56:48.928Z,97802.95
2019-02-11T00:59:20.926Z,97808.65
2019-02-11T01:01:51.081Z,97803.67
2019-02-11T01:04:21.136Z,97815.02
2019-02-11T01:06:52.146Z,97829.39
2019-02-11T01:09:22.331Z,97829.52
2019-02-11T01:11:52.459Z,97830.53
2019-02-11T01:14:23.178Z,97841.80
2019-02-11T01:16:53.243Z,97842.75
2019-02-11T01:19:23.356Z,97851.20
2019-02-11T01:21:53.234Z,97859.13
2019-02-11T01:24:23.148Z,97868.09
2019-02-11T01:26:53.437Z,97869.59
2019-02-11T01:29:23.364Z,97895.92
2019-02-11T01:31:53.287Z,97882.65
2019-02-11T01:34:23.635Z,97885.23
2019-02-11T01:36:53.656Z,97884.81
2019-02-11T01:39:23.579Z,97889.28
2019-02-11T01:41:53.577Z,97900.56
2019-02-11T01:44:23.454Z,97896.66
2019-02-11T01:46:53.467Z,97892.16
2019-02-11T01:49:23.604Z,97906.02
2019-02-11T01:51:53.623Z,97822.60
2019-02-11T01:54:23.589Z,97906.11
2019-02-11T01:56:53.539Z,97915.91
2019-02-11T01:59:23.371Z,97916.94
2019-02-11T02:01:53.250Z,97917.06
2019-02-11T02:04:23.439Z,97923.70
2019-02-11T02:06:53.572Z,97924.52
2019-02-11T02:09:23.616Z,97942.55
2019-02-11T02:11:53.633Z,97934.53
2019-02-11T02:14:23.904Z,97940.23
2019-02-11T02:16:54.411Z,97963.91
2019-02-11T02:19:26.644Z,97961.02
2019-02-11T02:21:56.483Z,97972.89
2019-02-11T02:24:26.653Z,97912.20
2019-02-11T02:26:57.216Z,97982.48
2019-02-11T02:29:27.450Z,97993.47
2019-02-11T02:31:57.653Z,98010.38
2019-02-11T02:34:27.707Z,98006.98
2019-02-11T02:36:57.874Z,98011.98
2019-02-11T02:39:29.215Z,98020.83
2019-02-11T02:41:59.143Z,98022.22
2019-02-11T02:44:29.491Z,98031.87
2019-02-11T02:46:59.444Z,98048.34
2019-02-11T02:49:29.357Z,98062.13
2019-02-11T02:51:59.414Z,98064.94
2019-02-11T02:54:29.737Z,98073.13
2019-02-11T02:57:00.583Z,98075.72
2019-02-11T02:59:31.651Z,98084.67
2019-02-11T03:02:02.043Z,98094.84
2019-02-11T03:04:31.871Z,98106.88
2019-02-11T03:07:01.905Z,98113.88
2019-02-11T03:09:31.924Z,98119.44
2019-02-11T03:12:01.797Z,98124.27
2019-02-11T03:14:32.109Z,98129.72
2019-02-11T03:17:02.240Z,98132.39
2019-02-11T03:19:33.201Z,98136.52
2019-02-11T03:22:03.042Z,98144.41
2019-02-11T03:24:33.138Z,98145.88
2019-02-11T03:27:04.017Z,98167.05
2019-02-11T03:29:34.075Z,98159.33
2019-02-11T03:32:15.429Z,98169.62
2019-02-11T03:34:58.040Z,98168.68
2019-02-11T03:37:29.436Z,98177.25
2019-02-11T03:39:59.359Z,98173.85
2019-02-11T03:42:29.475Z,98193.11
2019-02-11T03:44:59.331Z,98195.23
2019-02-11T03:47:29.201Z,98193.87
2019-02-11T03:49:59.058Z,98197.13
2019-02-11T03:52:29.172Z,98199.80
2019-02-11T03:54:59.447Z,98210.69
2019-02-11T03:57:29.582Z,98220.31
2019-02-11T03:59:59.769Z,98218.31
2019-02-11T04:02:30.847Z,98221.78
2019-02-11T04:05:00.726Z,98226.17
2019-02-11T04:07:30.905Z,98225.78
2019-02-11T04:10:00.910Z,98240.23
2019-02-11T04:12:31.019Z,98243.00
2019-02-11T04:15:01.447Z,98254.95
2019-02-11T04:17:31.957Z,98260.32
2019-02-11T04:20:02.040Z,98274.22
2019-02-11T04:22:32.007Z,98270.59
2019-02-11T04:25:01.884Z,98277.22
2019-02-11T04:27:31.782Z,98282.98
2019-02-11T04:30:01.681Z,98277.66
2019-02-11T04:32:32.017Z,98210.22
2019-02-11T04:35:02.213Z,98284.69
2019-02-11T04:37:32.059Z,98286.25
2019-02-11T04:40:02.464Z,98299.78
2019-02-11T04:42:32.621Z,98298.02
2019-02-11T04:45:03.135Z,98301.85
2019-02-11T04:47:33.080Z,98309.98
2019-02-11T04:50:03.047Z,98307.88
2019-02-11T04:52:33.233Z,98317.22
2019-02-11T04:55:03.477Z,98319.82
2019-02-11T04:57:33.550Z,98327.89
2019-02-11T05:00:05.265Z,98253.73
2019-02-11T05:02:35.103Z,98335.79
2019-02-11T05:05:05.497Z,98337.78
2019-02-11T05:07:35.678Z,98338.78
2019-02-11T05:10:08.522Z,98335.92
2019-02-11T05:12:38.523Z,98345.95
2019-02-11T05:15:09.435Z,98354.09
2019-02-11T05:17:39.544Z,98364.89
2019-02-11T05:20:10.210Z,98353.09
2019-02-11T05:22:40.064Z,98371.09
2019-02-11T05:25:10.374Z,98373.59
2019-02-11T05:27:40.267Z,98366.05
2019-02-11T05:30:10.729Z,98382.88
2019-02-11T05:32:40.860Z,98385.32
2019-02-11T05:35:10.841Z,98396.27
2019-02-11T05:37:40.959Z,98395.65
2019-02-11T05:40:12.201Z,98397.45
2019-02-11T05:42:41.964Z,98406.14
2019-02-11T05:45:11.976Z,98409.17
2019-02-11T05:47:42.405Z,98406.88
2019-02-11T05:50:12.463Z,98412.05
2019-02-11T05:52:42.318Z,98426.09
2019-02-11T05:55:12.688Z,98429.33
2019-02-11T05:57:42.832Z,98435.05
2019-02-11T06:00:14.975Z,98449.64
2019-02-11T06:02:45.161Z,98443.78
2019-02-11T06:05:19.217Z,98445.98
2019-02-11T06:07:49.047Z,98451.51
2019-02-11T06:10:37.064Z,98460.48
2019-02-11T06:13:21.274Z,98460.80
2019-02-11T06:15:51.392Z,98475.59
2019-02-11T06:18:22.526Z,98476.78
2019-02-11T06:20:53.116Z,98490.69
2019-02-11T06:23:23.383Z,98493.19
2019-02-11T06:25:54.393Z,98502.41
2019-02-11T06:28:25.778Z,98516.91
2019-02-11T06:30:58.473Z,98521.92
2019-02-11T06:33:32.832Z,98439.90
2019-02-11T06:36:11.991Z,98520.78
2019-02-11T06:38:35.930Z,98532.69
2019-02-11T06:41:06.125Z,98540.06
2019-02-11T06:43:36.365Z,98545.85
2019-02-11T06:46:06.359Z,98543.89
2019-02-11T06:48:36.534Z,98549.90
2019-02-11T06:51:08.049Z,98560.36
2019-02-11T06:53:38.547Z,98570.59
2019-02-11T06:56:11.425Z,98583.53
2019-02-11T06:58:41.493Z,98583.48
2019-02-11T07:01:14.559Z,98522.33
2019-02-11T07:03:46.255Z,98605.48
2019-02-11T07:06:19.235Z,98603.09
2019-02-11T07:08:49.225Z,98608.66
2019-02-11T07:11:19.344Z,98610.69
2019-02-11T07:13:51.809Z,98613.94
2019-02-11T07:16:22.276Z,98616.31
2019-02-11T07:18:52.888Z,98622.52
2019-02-11T07:21:23.121Z,98626.34
2019-02-11T07:23:53.049Z,98635.45
2019-02-11T07:26:27.292Z,98645.74
2019-02-11T07:29:01.765Z,98642.94
2019-02-11T07:31:32.187Z,98648.81
2019-02-11T07:34:03.528Z,98659.81
2019-02-11T07:36:33.645Z,98656.66
2019-02-11T07:39:09.975Z,98666.44
2019-02-11T07:41:45.655Z,98606.23
2019-02-11T07:44:19.739Z,98681.70
2019-02-11T07:46:57.440Z,98687.41
2019-02-11T07:49:27.528Z,98613.95
2019-02-11T07:51:59.070Z,98693.82
2019-02-11T07:54:30.506Z,98701.02
2019-02-11T07:57:00.683Z,98719.42
2019-02-11T07:59:30.973Z,98712.85
2019-02-11T08:02:02.601Z,98728.17
2019-02-11T08:04:34.028Z,98724.63
2019-02-11T08:07:07.098Z,98733.05
2019-02-11T08:09:38.709Z,98735.11
2019-02-11T08:12:08.933Z,98741.14
2019-02-11T08:14:38.838Z,98749.86
2019-02-11T08:17:10.133Z,98744.76
2019-02-11T08:19:42.100Z,98758.36
2019-02-11T08:22:19.701Z,98762.77
2019-02-11T08:24:53.305Z,98776.59
2019-02-11T08:27:26.826Z,98781.39
2019-02-11T08:29:59.814Z,98780.46
2019-02-11T08:32:30.043Z,98788.58
2019-02-11T08:35:01.677Z,98803.87
2019-02-11T08:37:31.695Z,98803.87
2019-02-11T08:40:08.470Z,98802.44
2019-02-11T08:42:38.960Z,98810.76
2019-02-11T08:45:09.475Z,98816.77
2019-02-11T08:47:39.494Z,98819.08
2019-02-11T08:50:10.355Z,98818.97
2019-02-11T08:52:40.281Z,98818.97
2019-02-11T08:55:11.396Z,98821.58
2019-02-11T08:57:42.554Z,98824.39
2019-02-11T09:00:14.322Z,98832.15
2019-02-11T09:02:44.656Z,98826.32
2019-02-11T09:05:16.048Z,98830.94
2019-02-11T09:07:46.620Z,98841.40
2019-02-11T09:10:17.454Z,98842.84
2019-02-11T09:12:47.689Z,98863.51
2019-02-11T09:15:18.158Z,98852.98
2019-02-11T09:17:48.711Z,98852.98
2019-02-11T09:20:19.301Z,98845.97
2019-02-11T09:22:49.748Z,98853.73
2019-02-11T09:25:19.770Z,98847.31
2019-02-11T09:27:50.099Z,98847.31
2019-02-11T09:30:21.201Z,98843.52
2019-02-11T09:32:54.159Z,98851.97
2019-02-11T09:35:24.151Z,98866.30
2019-02-11T09:37:54.820Z,98859.09
2019-02-11T09:40:27.742Z,98867.30
2019-02-11T09:42:57.792Z,98868.65
2019-02-11T09:45:29.590Z,98884.41
2019-02-11T09:47:59.773Z,98874.59
2019-02-11T09:50:48.746Z,98883.22
2019-02-11T09:53:19.409Z,98895.39
2019-02-11T09:55:49.885Z,98915.92
2019-02-11T09:58:21.430Z,98915.92
2019-02-11T10:00:51.677Z,98887.33
2019-02-11T10:03:26.118Z,98887.33
2019-02-11T10:05:59.337Z,98836.50
2019-02-11T10:08:34.014Z,98913.83
2019-02-11T10:11:04.450Z,98916.58
2019-02-11T10:13:37.705Z,98919.66
2019-02-11T10:16:12.609Z,98931.98
2019-02-11T10:18:40.113Z,98941.68
2019-02-11T10:21:18.123Z,98946.83
2019-02-11T10:23:49.048Z,98953.30
2019-02-11T10:26:22.842Z,98967.46
2019-02-11T10:28:55.181Z,98967.46
2019-02-11T10:31:30.254Z,98963.44
2019-02-11T10:34:07.492Z,99003.25
2019-02-11T10:36:37.802Z,99003.25
2019-02-11T10:39:09.164Z,98985.10
2019-02-11T10:41:39.756Z,99021.97
2019-02-11T10:44:13.996Z,98928.18
2019-02-11T10:46:44.945Z,99001.47
2019-02-11T10:49:18.191Z,99009.68
2019-02-11T10:51:49.502Z,99009.68
2019-02-11T10:54:21.224Z,99018.81
2019-02-11T11:00:01.183Z,99003.58
2019-02-11T11:02:32.181Z,99003.58
2019-02-11T11:05:05.585Z,99031.45
2019-02-11T11:07:36.173Z,99027.61
2019-02-11T11:10:09.945Z,99045.45
2019-02-11T11:12:40.567Z,99023.05
2019-02-11T11:15:15.625Z,99039.44
2019-02-11T11:17:45.951Z,99041.34
2019-02-11T11:20:18.585Z,99051.88
2019-02-11T11:22:53.418Z,99048.29
2019-02-11T11:25:28.133Z,99057.49
2019-02-11T11:27:58.528Z,99068.12
2019-02-11T11:30:28.871Z,99091.31
2019-02-11T11:33:01.308Z,99068.75
2019-02-11T11:35:32.357Z,99072.08
2019-02-11T11:38:03.059Z,99074.47
2019-02-11T11:40:37.105Z,99076.19
2019-02-11T11:43:09.267Z,99089.56
2019-02-11T11:45:39.839Z,99085.79
2019-02-11T11:48:13.639Z,99095.36
2019-02-11T11:50:45.503Z,99035.10
2019-02-11T11:53:18.106Z,99101.41
2019-02-11T11:55:50.063Z,99110.20
2019-02-11T11:58:26.666Z,99043.45
2019-02-11T12:01:01.700Z,99104.45
2019-02-11T12:03:34.318Z,99114.28
2019-02-11T12:06:05.980Z,99114.76
2019-02-11T12:08:39.254Z,99031.98
2019-02-11T12:11:11.568Z,99056.94
2019-02-11T12:13:42.081Z,99133.28
2019-02-11T12:16:13.830Z,99141.34
2019-02-11T12:18:44.889Z,99157.61
2019-02-11T12:21:16.646Z,99171.09
2019-02-11T12:23:46.835Z,99113.55
2019-02-11T12:26:21.693Z,99166.61
2019-02-11T12:32:24.130Z,99171.59
2019-02-11T12:34:54.556Z,99176.14
2019-02-11T12:37:25.498Z,99118.73
2019-02-11T12:39:56.653Z,99192.79
2019-02-11T12:42:27.670Z,99194.94
2019-02-11T12:44:59.643Z,99208.15
2019-02-11T12:47:31.581Z,99220.88
2019-02-11T12:50:03.498Z,99210.66
2019-02-11T12:52:34.597Z,99220.26
2019-02-11T12:55:07.959Z,99224.34
2019-02-11T12:57:39.514Z,99231.67
2019-02-11T13:00:17.077Z,99226.52
2019-02-11T13:02:46.756Z,99237.00
2019-02-11T13:05:21.891Z,99242.60
2019-02-11T13:07:51.607Z,99253.36
2019-02-11T13:10:23.219Z,99249.16
2019-02-11T13:12:57.934Z,99254.08
2019-02-11T13:15:57.466Z,99248.42
2019-02-11T13:18:07.780Z,99241.52
2019-02-11T13:20:39.117Z,99248.64
2019-02-11T13:23:11.349Z,99256.08
2019-02-11T13:25:42.022Z,99255.27
2019-02-11T13:28:14.709Z,99252.06
2019-02-11T13:30:45.183Z,99257.56
2019-02-11T13:33:16.018Z,99265.69
2019-02-11T13:35:48.546Z,99268.11
2019-02-11T13:38:19.327Z,99277.67
2019-02-11T13:40:52.494Z,99220.80
2019-02-11T13:43:25.935Z,99291.33
2019-02-11T13:45:58.239Z,99284.30
2019-02-11T13:48:33.215Z,99279.39
2019-02-11T13:51:01.219Z,99281.45
2019-02-11T13:53:32.129Z,99301.17
2019-02-11T13:56:05.147Z,99300.98
2019-02-11T13:58:38.687Z,99308.73
2019-02-11T14:01:11.855Z,99315.47
2019-02-11T14:03:46.843Z,99322.98
2019-02-11T14:06:17.884Z,99330.38
2019-02-11T14:08:48.291Z,99337.30
2019-02-11T14:11:19.024Z,99345.01
2019-02-11T14:14:02.728Z,99362.77
2019-02-11T14:16:30.912Z,99366.14
2019-02-11T14:19:04.897Z,99381.48
2019-02-11T14:21:37.188Z,99400.61
2019-02-11T14:24:11.904Z,99398.31
2019-02-11T14:26:43.639Z,99398.31
2019-02-11T14:29:15.423Z,99372.64
2019-02-11T14:31:46.025Z,99405.55
2019-02-11T14:34:16.417Z,99417.06
2019-02-11T14:36:52.288Z,99417.06
2019-02-11T14:39:22.605Z,99416.56
2019-02-11T14:41:52.935Z,99420.89
2019-02-11T14:44:22.867Z,99419.67
2019-02-11T14:46:54.267Z,99419.67
2019-02-11T14:49:24.692Z,99430.25
2019-02-11T14:51:57.846Z,99446.34
2019-02-11T14:54:28.619Z,99446.34
2019-02-11T14:57:01.386Z,99440.16
2019-02-11T14:59:31.776Z,99439.94
2019-02-11T15:02:05.295Z,99442.79
2019-02-11T15:04:35.208Z,99372.45
2019-02-11T15:07:07.248Z,99457.49
2019-02-11T15:09:37.636Z,99474.97
2019-02-11T15:12:08.241Z,99471.45
2019-02-11T15:14:39.821Z,99477.22
2019-02-11T15:17:14.517Z,99490.34
2019-02-11T15:19:45.454Z,99498.99
2019-02-11T15:22:16.294Z,99501.84
2019-02-11T15:24:49.689Z,99508.75
2019-02-11T15:27:20.643Z,99503.79
2019-02-11T15:29:57.632Z,99515.06
2019-02-11T15:32:30.029Z,99520.37
2019-02-11T15:35:01.897Z,99534.20
2019-02-11T15:37:37.745Z,99542.42
2019-02-11T15:40:15.343Z,99542.42
2019-02-11T15:42:46.116Z,99536.37
2019-02-11T15:45:22.456Z,99549.39
2019-02-11T15:47:52.864Z,99559.23
2019-02-11T15:50:23.574Z,99567.98
2019-02-11T15:52:53.570Z,99571.22
2019-02-11T15:55:23.703Z,99582.11
2019-02-11T15:57:54.761Z,99589.20
2019-02-11T16:00:25.093Z,99588.75
2019-02-11T16:02:55.441Z,99597.84
2019-02-11T16:05:26.172Z,99601.62
2019-02-11T16:07:56.205Z,99610.95
2019-02-11T16:10:28.297Z,99620.61
2019-02-11T16:12:58.911Z,99627.58
2019-02-11T16:15:29.400Z,99631.11
2019-02-11T16:17:59.683Z,99644.91
2019-02-11T16:20:29.999Z,99653.22
2019-02-11T16:23:08.372Z,99657.33
2019-02-11T16:25:39.519Z,99667.78
2019-02-11T16:28:10.098Z,99662.40
2019-02-11T16:30:40.759Z,99678.92
2019-02-11T16:33:11.584Z,99678.17
2019-02-11T16:35:42.488Z,99677.62
2019-02-11T16:38:12.644Z,99683.78
2019-02-11T16:40:46.436Z,99683.77
2019-02-11T16:43:17.240Z,99692.84
2019-02-11T16:45:48.232Z,99690.69
2019-02-11T16:48:18.627Z,99697.28
2019-02-11T16:50:49.603Z,99708.75
2019-02-11T16:53:22.505Z,99710.14
2019-02-11T16:55:52.690Z,99710.55
2019-02-11T16:58:23.298Z,99722.12
2019-02-11T17:00:56.135Z,99731.45
2019-02-11T17:03:26.969Z,99731.98
2019-02-11T17:05:57.549Z,99744.39
2019-02-11T17:08:29.294Z,99756.63
2019-02-11T17:11:00.926Z,99758.41
2019-02-11T17:13:32.753Z,99761.81
2019-02-11T17:16:05.329Z,99760.54
2019-02-11T17:18:35.478Z,99690.27
2019-02-11T17:21:06.640Z,99791.69
2019-02-11T17:23:37.585Z,99813.30
2019-02-11T17:26:10.534Z,99818.53
2019-02-11T17:28:42.441Z,99830.38
2019-02-11T17:31:14.621Z,99825.00
2019-02-11T17:33:48.502Z,99830.81
2019-02-11T17:36:27.999Z,99841.88
2019-02-11T17:39:01.148Z,99853.23
2019-02-11T17:41:32.964Z,99851.78
2019-02-11T17:44:06.656Z,99785.84
2019-02-11T17:46:38.107Z,99865.13
2019-02-11T17:49:17.627Z,99875.67
2019-02-11T17:51:43.794Z,99869.34
2019-02-11T17:54:14.458Z,99878.11
2019-02-11T17:56:44.794Z,99881.81
2019-02-11T17:59:15.977Z,99892.71
2019-02-11T18:01:46.953Z,99886.72
2019-02-11T18:04:22.440Z,99892.71
2019-02-11T18:06:54.240Z,99903.09
2019-02-11T18:09:24.758Z,99914.14
2019-02-11T18:11:54.631Z,99915.11
2019-02-11T18:14:25.553Z,99921.27
2019-02-11T18:16:58.552Z,99925.84
2019-02-11T18:19:34.531Z,99852.17
2019-02-11T18:22:10.271Z,99944.17
2019-02-11T18:24:41.933Z,99950.17
2019-02-11T18:27:16.151Z,99959.92
2019-02-11T18:29:51.120Z,99966.73
2019-02-11T18:32:28.717Z,99983.31
2019-02-11T18:35:00.888Z,99985.58
2019-02-11T18:37:36.155Z,99989.65
2019-02-11T18:40:09.047Z,99993.06
2019-02-11T18:42:41.715Z,100011.25
2019-02-11T18:45:18.448Z,100021.31
2019-02-11T18:47:50.575Z,100023.26
2019-02-11T18:50:21.452Z,100024.41
2019-02-11T18:52:52.493Z,100033.02
2019-02-11T18:55:23.103Z,100045.02
2019-02-11T18:57:53.108Z,100042.10
2019-02-11T19:00:23.769Z,99970.14
2019-02-11T19:02:54.132Z,100059.66
2019-02-11T19:05:24.939Z,100067.42
2019-02-11T19:07:55.355Z,100061.90
2019-02-11T19:10:26.083Z,100066.30
2019-02-11T19:12:56.263Z,100069.23
2019-02-11T19:15:27.582Z,100074.42
2019-02-11T19:17:58.289Z,100086.27
2019-02-11T19:20:28.837Z,100083.34
2019-02-11T19:22:58.973Z,100088.54
2019-02-11T19:25:29.376Z,100092.44
2019-02-11T19:27:59.501Z,100099.75
2019-02-11T19:30:29.494Z,100101.05
2019-02-11T19:32:59.868Z,100102.02
2019-02-11T19:35:30.254Z,100106.73
2019-02-11T19:38:00.463Z,100119.39
2019-02-11T19:40:30.533Z,100114.31
2019-02-11T19:43:00.595Z,100127.96
2019-02-11T19:45:30.621Z,100128.30
2019-02-11T19:48:00.781Z,100131.23
2019-02-11T19:50:31.344Z,100129.45
2019-02-11T19:53:01.376Z,100129.63
2019-02-11T19:55:34.761Z,100143.13
2019-02-11T19:58:09.511Z,100142.16
2019-02-11T20:00:40.060Z,100145.73
2019-02-11T20:03:10.351Z,100149.30
2019-02-11T20:05:40.494Z,100150.08
2019-02-11T20:08:10.551Z,100154.16
2019-02-11T20:10:41.447Z,100170.38
2019-02-11T20:13:11.435Z,100166.63
2019-02-11T20:15:41.555Z,100161.28
2019-02-11T20:18:11.926Z,100147.33
2019-02-11T20:20:42.075Z,100148.73
2019-02-11T20:23:12.695Z,100149.18
2019-02-11T20:25:43.366Z,100140.23
2019-02-11T20:28:13.395Z,100070.47
2019-02-11T20:30:43.529Z,100151.59
2019-02-11T20:33:13.618Z,100165.05
2019-02-11T20:35:43.666Z,100171.55
2019-02-11T20:38:13.718Z,100176.48
2019-02-11T20:40:45.644Z,100180.05
2019-02-11T20:43:15.663Z,100185.87
2019-02-11T20:45:46.250Z,100189.48
2019-02-11T20:48:16.649Z,100200.69
2019-02-11T20:50:47.199Z,100200.58
2019-02-11T20:53:17.134Z,100214.73
2019-02-11T20:55:48.010Z,100213.95
2019-02-11T20:58:18.558Z,100228.10
2019-02-11T21:00:49.169Z,100228.44
2019-02-11T21:03:20.520Z,100235.27
2019-02-11T21:05:51.563Z,100240.32
2019-02-11T21:08:21.760Z,100242.92
2019-02-11T21:10:52.117Z,100244.73
2019-02-11T21:13:22.365Z,100247.66
2019-02-11T21:15:52.621Z,100250.27
2019-02-11T21:18:22.811Z,100245.55
2019-02-11T21:20:52.803Z,100248.48
2019-02-11T21:23:22.963Z,100256.28
2019-02-11T21:25:54.457Z,100252.56
2019-02-11T21:28:24.450Z,100247.53
2019-02-11T21:30:54.763Z,100258.91
2019-02-11T21:33:24.796Z,100253.70
2019-02-11T21:35:54.992Z,100250.98
2019-02-11T21:38:25.466Z,100255.67
2019-02-11T21:40:55.814Z,100255.66
2019-02-11T21:43:26.292Z,100247.07
2019-02-11T21:45:56.686Z,100256.02
2019-02-11T21:48:27.669Z,100259.43
2019-02-11T21:50:57.751Z,100270.33
2019-02-11T21:53:27.819Z,100268.54
2019-02-11T21:55:59.231Z,100265.28
2019-02-11T21:58:29.146Z,100269.00
2019-02-11T22:01:02.588Z,100270.14
2019-02-11T22:03:32.947Z,100265.61
2019-02-11T22:06:06.372Z,100261.84
2019-02-11T22:08:37.776Z,100261.84
2019-02-11T22:11:07.843Z,100260.08
2019-02-11T22:13:37.966Z,100263.16
2019-02-11T22:16:08.310Z,100273.39
2019-02-11T22:18:38.363Z,100275.50
2019-02-11T22:21:08.932Z,100275.33
2019-02-11T22:23:39.697Z,100279.72
2019-02-11T22:26:14.241Z,100280.34
2019-02-11T22:28:44.666Z,100293.87
2019-02-11T22:31:14.824Z,100283.95
2019-02-11T22:33:44.772Z,100292.11
2019-02-11T22:36:15.102Z,100292.10
2019-02-11T22:38:45.285Z,100298.13
2019-02-11T22:41:16.013Z,100303.81
2019-02-11T22:43:46.526Z,100303.98
2019-02-11T22:46:19.206Z,100303.51
2019-02-11T22:48:50.312Z,100311.52
2019-02-11T22:51:21.510Z,100303.51
2019-02-11T22:53:51.545Z,100314.38
2019-02-11T22:56:21.634Z,100321.66
2019-02-11T22:58:55.254Z,100335.19
2019-02-11T23:01:26.348Z,100339.09
2019-02-11T23:03:58.166Z,100352.28
2019-02-11T23:06:29.789Z,100349.52
2019-02-11T23:09:00.596Z,100348.07
2019-02-11T23:11:30.740Z,100349.89
2019-02-11T23:14:00.893Z,100354.06
2019-02-11T23:16:31.406Z,100364.95
2019-02-11T23:19:02.028Z,100361.08
2019-02-11T23:21:32.489Z,100367.80
2019-02-11T23:24:02.723Z,100356.09
2019-02-11T23:26:33.371Z,100369.25
2019-02-11T23:29:03.932Z,100377.39
2019-02-11T23:31:34.209Z,100374.24
2019-02-11T23:34:04.474Z,100378.06
2019-02-11T23:36:34.946Z,100386.20
2019-02-11T23:39:14.388Z,100372.52
2019-02-11T23:41:46.239Z,100384.23
2019-02-11T23:44:16.316Z,100393.16
2019-02-11T23:46:48.353Z,100400.48
2019-02-11T23:49:18.961Z,100396.09
2019-02-11T23:51:49.144Z,100384.23
2019-02-11T23:54:19.388Z,100385.53
2019-02-11T23:56:49.899Z,100397.58
2019-02-11T23:59:20.361Z,100408.02
